This is the latest recevied weather packets stored in our database for station/object KM7BEO. If no packets are shown the sender has not sent any weather packets the latest 10 day(s).
| Time | Temp. | Humidity | Pressure | Rain* | Wind** | Luminosity | Snow |
|---|---|---|---|---|---|---|---|
| 1777663214 | 13.33° C | 83% | 1016.2 hPa | 0 mm | - | 614 W/m² | - |
| 1777662911 | 13.33° C | 85% | 1016.1 hPa | 0 mm | - | 608 W/m² | - |
| 1777662608 | 13.89° C | 83% | 1016.3 hPa | 0 mm | - | 514 W/m² | - |
| 1777662303 | 13.33° C | 84% | 1016.5 hPa | 0 mm | - | 572 W/m² | - |
| 1777661999 | 12.78° C | 85% | 1016.5 hPa | 0 mm | - | 618 W/m² | - |
| 1777661695 | 13.33° C | 84% | 1016.4 hPa | 0 mm | - | 528 W/m² | - |
| 1777661391 | 13.89° C | 83% | 1016.4 hPa | 0 mm | - | 345 W/m² | - |
| 1777661088 | 13.33° C | 84% | 1016.5 hPa | 0 mm | - | 385 W/m² | - |
| 1777660782 | 12.78° C | 87% | 1016.6 hPa | 0 mm | - | 523 W/m² | - |
| 1777660480 | 12.78° C | 86% | 1016.7 hPa | 0 mm | - | 558 W/m² | - |
| 1777660176 | 13.33° C | 84% | 1016.7 hPa | 0 mm | - | 398 W/m² | - |
| 1777659873 | 13.33° C | 84% | 1016.6 hPa | 0 mm | - | 545 W/m² | - |
| 1777659570 | 13.33° C | 84% | 1016.7 hPa | 0 mm | - | 466 W/m² | - |
| 1777659267 | 13.33° C | 85% | 1016.6 hPa | 0 mm | - | 408 W/m² | - |
| 1777658964 | 13.33° C | 85% | 1016.9 hPa | 0 mm | - | 508 W/m² | - |
| 1777658661 | 13.33° C | 85% | 1016.8 hPa | 0 mm | - | 513 W/m² | - |
| 1777658357 | 13.33° C | 84% | 1016.7 hPa | 0 mm | - | 525 W/m² | - |
| 1777658055 | 13.33° C | 87% | 1016.8 hPa | 0 mm | - | 495 W/m² | - |
| 1777657751 | 12.22° C | 90% | 1016.9 hPa | 0 mm | - | 501 W/m² | - |
| 1777657449 | 12.22° C | 92% | 1016.8 hPa | 0 mm | - | 432 W/m² | - |
| 1777657146 | 11.67° C | 94% | 1017 hPa | 0 mm | - | 431 W/m² | - |
| 1777656844 | 11.67° C | 94% | 1016.9 hPa | 0 mm | - | 314 W/m² | - |
| 1777656539 | 11.11° C | 96% | 1017 hPa | 0 mm | - | 327 W/m² | - |
| 1777656234 | 11.11° C | 97% | 1016.9 hPa | 0 mm | - | 305 W/m² | - |
| 1777655930 | 10.56° C | 97% | 1016.9 hPa | 0 mm | - | 241 W/m² | - |
* Rain latest hour (hover to see other rain measurements)
** Current wind speed in m/s (hover to see current wind gust speed)